createdAt,value
2022-10-16T00:00:12.887Z,47.50
2022-10-16T00:02:44.057Z,45.97
2022-10-16T00:05:15.161Z,50.23
2022-10-16T00:07:44.143Z,48.23
2022-10-16T00:10:22.164Z,45.53
2022-10-16T00:12:50.012Z,47.93
2022-10-16T00:15:18.721Z,44.07
2022-10-16T00:17:48.447Z,45.17
2022-10-16T00:20:16.277Z,45.20
2022-10-16T00:22:43.700Z,45.13
2022-10-16T00:25:13.514Z,46.17
2022-10-16T00:27:43.225Z,44.77
2022-10-16T00:30:20.988Z,48.57
2022-10-16T00:32:52.517Z,46.17
2022-10-16T00:35:20.055Z,47.23
2022-10-16T00:37:49.936Z,49.67
2022-10-16T00:40:18.469Z,48.30
2022-10-16T00:42:48.696Z,50.13
2022-10-16T00:45:18.857Z,47.87
2022-10-16T00:47:50.138Z,50.37
2022-10-16T00:50:31.000Z,46.87
2022-10-16T00:55:46.140Z,48.13
2022-10-16T00:58:17.151Z,49.00
2022-10-16T01:00:46.721Z,48.73
2022-10-16T01:03:34.138Z,47.17
2022-10-16T01:06:26.462Z,48.77
2022-10-16T01:09:23.239Z,46.37
2022-10-16T01:12:14.360Z,47.33
2022-10-16T01:14:54.070Z,49.67
2022-10-16T01:17:34.016Z,50.87
2022-10-16T01:20:29.473Z,50.77
2022-10-16T01:23:15.101Z,49.17
2022-10-16T01:26:06.005Z,51.73
2022-10-16T01:28:49.200Z,50.10
2022-10-16T01:31:22.504Z,50.37
2022-10-16T01:34:07.161Z,50.73
2022-10-16T01:36:42.947Z,51.83
2022-10-16T01:39:17.245Z,53.10
2022-10-16T01:42:13.669Z,50.77
2022-10-16T01:44:46.157Z,51.20
2022-10-16T01:47:18.992Z,53.27
2022-10-16T01:49:47.798Z,51.83
2022-10-16T01:52:25.451Z,51.93
2022-10-16T01:54:57.714Z,50.63
2022-10-16T01:57:29.770Z,51.90
2022-10-16T02:00:06.555Z,53.13
2022-10-16T02:03:03.764Z,51.97
2022-10-16T02:05:57.662Z,49.37
2022-10-16T02:08:35.419Z,48.73
2022-10-16T02:11:03.812Z,49.30
2022-10-16T02:13:56.640Z,49.67
2022-10-16T02:16:35.289Z,49.47
2022-10-16T02:22:06.094Z,49.57
2022-10-16T02:25:07.328Z,49.17
2022-10-16T02:27:38.766Z,49.73
2022-10-16T02:30:13.493Z,47.37
2022-10-16T02:32:45.599Z,47.90
2022-10-16T02:35:14.318Z,46.80
2022-10-16T02:37:42.847Z,48.43
2022-10-16T02:40:12.616Z,48.23
2022-10-16T02:42:42.055Z,48.17
2022-10-16T02:45:12.527Z,45.97
2022-10-16T02:47:42.292Z,46.00
2022-10-16T02:50:11.013Z,44.93
2022-10-16T02:52:40.010Z,45.20
2022-10-16T02:55:07.813Z,46.03
2022-10-16T02:57:38.471Z,43.30
2022-10-16T03:00:06.855Z,46.93
2022-10-16T03:02:36.890Z,44.93
2022-10-16T03:05:08.414Z,44.40
2022-10-16T03:07:37.418Z,44.47
2022-10-16T03:10:08.874Z,43.93
2022-10-16T03:12:36.414Z,44.70
2022-10-16T03:15:04.207Z,43.93
2022-10-16T03:17:34.480Z,44.70
2022-10-16T03:20:05.756Z,45.97
2022-10-16T03:22:37.341Z,45.47
2022-10-16T03:25:05.951Z,43.23
2022-10-16T03:30:24.939Z,46.67
2022-10-16T03:32:55.790Z,46.60
2022-10-16T03:35:25.794Z,45.90
2022-10-16T03:37:55.018Z,44.73
2022-10-16T03:40:27.802Z,42.80
2022-10-16T03:42:58.369Z,43.53
2022-10-16T03:45:28.563Z,42.77
2022-10-16T03:47:55.963Z,42.70
2022-10-16T03:50:26.067Z,41.27
2022-10-16T03:53:00.572Z,41.93
2022-10-16T03:55:33.006Z,40.63
2022-10-16T03:58:01.399Z,39.07
2022-10-16T04:00:30.722Z,40.50
2022-10-16T04:03:01.527Z,40.87
2022-10-16T04:05:31.385Z,41.17
2022-10-16T04:08:03.915Z,39.03
2022-10-16T04:10:59.334Z,40.13
2022-10-16T04:17:57.234Z,39.43
2022-10-16T04:20:27.879Z,39.40
2022-10-16T04:22:57.696Z,40.53
2022-10-16T04:25:28.787Z,41.33
2022-10-16T04:28:00.083Z,40.40
2022-10-16T04:30:28.431Z,41.87
2022-10-16T04:32:58.899Z,40.57
2022-10-16T04:35:27.381Z,39.90
2022-10-16T04:38:02.305Z,39.67
2022-10-16T04:40:37.420Z,39.00
2022-10-16T04:43:13.787Z,41.10
2022-10-16T04:45:41.737Z,39.30
2022-10-16T04:48:09.171Z,39.47
2022-10-16T04:50:41.605Z,39.67
2022-10-16T04:53:10.722Z,37.73
2022-10-16T04:55:41.316Z,38.27
2022-10-16T04:58:17.218Z,40.63
2022-10-16T05:00:49.645Z,38.47
2022-10-16T05:08:48.293Z,37.27
2022-10-16T05:11:17.673Z,35.97
2022-10-16T05:13:46.126Z,35.00
2022-10-16T05:16:13.732Z,36.57
2022-10-16T05:18:42.173Z,34.97
2022-10-16T05:21:13.472Z,35.77
2022-10-16T05:23:41.328Z,35.07
2022-10-16T05:26:09.745Z,36.37
2022-10-16T05:28:38.667Z,36.20
2022-10-16T05:31:10.482Z,33.60
2022-10-16T05:33:38.123Z,34.90
2022-10-16T05:36:11.366Z,35.20
2022-10-16T05:38:41.702Z,33.57
2022-10-16T05:41:14.241Z,33.90
2022-10-16T05:43:41.584Z,32.67
2022-10-16T05:46:09.319Z,33.13
2022-10-16T05:48:41.301Z,30.97
2022-10-16T05:51:13.090Z,31.07
2022-10-16T05:56:17.272Z,32.83
2022-10-16T05:58:45.700Z,33.13
2022-10-16T06:01:18.118Z,34.87
2022-10-16T06:03:50.444Z,34.20
2022-10-16T06:06:34.825Z,32.77
2022-10-16T06:09:06.159Z,31.73
2022-10-16T06:11:45.690Z,32.83
2022-10-16T06:14:22.250Z,31.93
2022-10-16T06:16:50.582Z,31.17
2022-10-16T06:19:21.278Z,30.77
2022-10-16T06:21:52.413Z,31.97
2022-10-16T06:24:20.373Z,29.20
2022-10-16T06:26:54.838Z,30.20
2022-10-16T06:29:24.665Z,29.50
2022-10-16T06:31:52.044Z,28.67
2022-10-16T06:34:22.876Z,29.77
2022-10-16T06:36:52.608Z,29.23
2022-10-16T06:39:23.414Z,30.10
2022-10-16T06:41:51.196Z,31.57
2022-10-16T06:44:21.053Z,31.97
2022-10-16T06:46:48.672Z,33.37
2022-10-16T06:49:24.528Z,33.17
2022-10-16T06:51:58.418Z,34.47
2022-10-16T06:54:29.271Z,34.23
2022-10-16T06:56:57.781Z,36.57
2022-10-16T06:59:25.966Z,36.33
2022-10-16T07:01:57.680Z,35.83
2022-10-16T07:04:26.881Z,38.63
2022-10-16T07:06:57.431Z,38.53
2022-10-16T07:09:27.249Z,38.13
2022-10-16T07:11:54.745Z,39.90
2022-10-16T07:14:22.898Z,40.80
2022-10-16T07:16:51.499Z,40.23
2022-10-16T07:19:19.679Z,39.70
2022-10-16T07:21:49.875Z,40.63
2022-10-16T07:24:19.183Z,38.93
2022-10-16T07:26:56.637Z,40.00
2022-10-16T07:29:26.277Z,39.60
2022-10-16T07:31:53.708Z,40.40
2022-10-16T07:34:25.843Z,40.53
2022-10-16T07:36:53.830Z,46.03
2022-10-16T07:39:24.820Z,49.87
2022-10-16T07:41:54.284Z,42.33
2022-10-16T07:44:26.207Z,43.30
2022-10-16T07:46:56.183Z,44.93
2022-10-16T07:49:27.080Z,42.97
2022-10-16T07:51:54.490Z,40.20
2022-10-16T07:54:23.116Z,39.77
2022-10-16T07:56:55.470Z,40.53
2022-10-16T07:59:24.898Z,41.40
2022-10-16T08:01:55.804Z,42.00
2022-10-16T08:04:26.300Z,41.10
2022-10-16T08:06:55.992Z,42.60
2022-10-16T08:09:26.603Z,41.40
2022-10-16T08:12:00.020Z,41.13
2022-10-16T08:14:32.953Z,40.53
2022-10-16T08:17:05.974Z,40.37
2022-10-16T08:19:35.831Z,41.67
2022-10-16T08:22:07.371Z,41.43
2022-10-16T08:24:35.867Z,38.80
2022-10-16T08:27:03.763Z,38.37
2022-10-16T08:29:32.821Z,39.80
2022-10-16T08:32:01.195Z,39.40
2022-10-16T08:34:29.341Z,40.27
2022-10-16T08:36:56.743Z,39.67
2022-10-16T08:39:25.881Z,39.60
2022-10-16T08:42:24.473Z,40.73
2022-10-16T08:45:21.959Z,41.43
2022-10-16T08:48:05.720Z,40.83
2022-10-16T08:50:39.330Z,42.17
2022-10-16T08:53:41.052Z,41.60
2022-10-16T08:56:15.921Z,41.60
2022-10-16T09:01:24.271Z,40.43
2022-10-16T09:04:30.122Z,41.57
2022-10-16T09:07:36.418Z,42.63
2022-10-16T09:10:10.581Z,42.83
2022-10-16T09:13:09.130Z,43.10
2022-10-16T09:16:16.168Z,43.33
2022-10-16T09:19:03.475Z,42.73
2022-10-16T09:21:54.207Z,41.97
2022-10-16T09:24:30.134Z,41.93
2022-10-16T09:27:00.834Z,41.87
2022-10-16T09:29:28.790Z,41.97
2022-10-16T09:32:08.486Z,42.87
2022-10-16T09:34:44.943Z,44.00
2022-10-16T09:37:17.323Z,43.73
2022-10-16T09:39:56.387Z,42.77
2022-10-16T09:42:35.071Z,43.47
2022-10-16T09:45:05.439Z,42.23
2022-10-16T09:47:37.328Z,41.93
2022-10-16T09:50:27.449Z,39.83
2022-10-16T09:53:16.174Z,39.70
2022-10-16T09:55:57.101Z,39.30
2022-10-16T09:58:29.696Z,37.57
2022-10-16T10:00:58.757Z,36.07
2022-10-16T10:03:42.847Z,38.90
2022-10-16T10:06:29.281Z,40.23
2022-10-16T10:09:39.958Z,40.77
2022-10-16T10:12:27.735Z,38.87
2022-10-16T10:14:59.060Z,41.30
2022-10-16T10:17:29.989Z,42.03
2022-10-16T10:20:25.957Z,39.83
2022-10-16T10:22:56.865Z,39.30
2022-10-16T10:25:46.469Z,37.80
2022-10-16T10:28:52.340Z,40.43
2022-10-16T10:31:40.139Z,43.27
2022-10-16T10:34:21.012Z,42.87
2022-10-16T10:37:22.198Z,42.13
2022-10-16T10:40:31.274Z,42.30
2022-10-16T10:43:29.554Z,40.37
2022-10-16T10:46:06.754Z,40.40
2022-10-16T10:48:51.487Z,38.87
2022-10-16T10:51:37.614Z,39.57
2022-10-16T10:54:22.375Z,38.33
2022-10-16T10:56:58.445Z,39.50
2022-10-16T10:59:50.519Z,39.80
2022-10-16T11:02:44.954Z,39.80
2022-10-16T11:05:26.962Z,38.03
2022-10-16T11:08:30.510Z,38.07
2022-10-16T11:10:59.618Z,39.37
2022-10-16T11:13:38.135Z,38.70
2022-10-16T11:16:27.063Z,38.20
2022-10-16T11:19:14.642Z,36.83
2022-10-16T11:21:59.401Z,38.03
2022-10-16T11:24:36.883Z,37.90
2022-10-16T11:27:15.062Z,38.93
2022-10-16T11:29:59.731Z,38.33
2022-10-16T11:32:57.527Z,39.33
2022-10-16T11:35:48.604Z,41.00
2022-10-16T11:38:53.973Z,40.37
2022-10-16T11:41:40.233Z,40.10
2022-10-16T11:44:49.012Z,42.00
2022-10-16T11:47:58.266Z,42.20
2022-10-16T11:50:54.145Z,43.20
2022-10-16T11:53:33.546Z,41.77
2022-10-16T11:56:02.929Z,42.70
2022-10-16T11:58:33.468Z,42.70
2022-10-16T12:01:13.416Z,41.93
2022-10-16T12:04:28.671Z,42.67
2022-10-16T12:07:09.934Z,40.03
2022-10-16T12:09:43.896Z,38.07
2022-10-16T12:12:37.864Z,38.13
2022-10-16T12:15:58.611Z,36.53
2022-10-16T12:18:28.336Z,35.60
2022-10-16T12:21:02.812Z,35.03
2022-10-16T12:23:32.848Z,34.63
2022-10-16T12:26:03.414Z,32.87
2022-10-16T12:31:16.131Z,32.83
2022-10-16T12:34:23.974Z,33.40
2022-10-16T12:36:54.819Z,32.37
2022-10-16T12:39:28.414Z,32.20
2022-10-16T12:42:22.678Z,33.30
2022-10-16T12:44:50.884Z,32.40
2022-10-16T12:47:50.741Z,33.07
2022-10-16T12:50:48.636Z,32.70
2022-10-16T12:53:27.220Z,32.97
2022-10-16T12:56:13.876Z,32.30
2022-10-16T12:59:13.527Z,34.43
2022-10-16T13:01:58.400Z,34.73
2022-10-16T13:04:42.157Z,33.40
2022-10-16T13:07:26.485Z,34.40
2022-10-16T13:09:54.580Z,34.90
2022-10-16T13:13:03.847Z,33.93
2022-10-16T13:16:20.237Z,33.93
2022-10-16T13:19:27.616Z,34.73
2022-10-16T13:22:22.439Z,35.03
2022-10-16T13:25:26.004Z,37.13
2022-10-16T13:28:11.103Z,34.47
2022-10-16T13:30:52.737Z,35.67
2022-10-16T13:33:46.800Z,36.37
2022-10-16T13:36:57.663Z,36.50
2022-10-16T13:39:30.958Z,35.87
2022-10-16T13:42:09.119Z,39.00
2022-10-16T13:44:50.298Z,37.20
2022-10-16T13:47:27.638Z,37.83
2022-10-16T13:50:18.024Z,38.37
2022-10-16T13:52:47.329Z,37.90
2022-10-16T13:55:17.956Z,38.83
2022-10-16T13:57:47.371Z,36.60
2022-10-16T14:00:24.772Z,39.23
2022-10-16T14:02:59.549Z,39.47
2022-10-16T14:05:27.256Z,39.27
2022-10-16T14:07:56.386Z,38.13
2022-10-16T14:10:50.185Z,38.27
2022-10-16T14:13:27.857Z,37.10
2022-10-16T14:15:56.158Z,37.83
2022-10-16T14:18:33.393Z,38.37
2022-10-16T14:23:52.950Z,37.53
2022-10-16T14:26:28.861Z,38.87
2022-10-16T14:29:15.694Z,38.40
2022-10-16T14:31:55.776Z,39.90
2022-10-16T14:34:28.528Z,39.93
2022-10-16T14:36:59.811Z,38.53
2022-10-16T14:39:29.484Z,38.23
2022-10-16T14:41:59.719Z,38.70
2022-10-16T14:44:33.809Z,37.43
2022-10-16T14:47:30.955Z,37.67
2022-10-16T14:50:02.771Z,35.63
2022-10-16T14:52:30.203Z,35.83
2022-10-16T14:54:58.927Z,35.13
2022-10-16T14:57:30.843Z,35.33
2022-10-16T14:59:59.321Z,34.30
2022-10-16T15:02:32.900Z,34.40
2022-10-16T15:05:24.660Z,34.87
2022-10-16T15:07:55.770Z,36.07
2022-10-16T15:10:29.580Z,36.60
2022-10-16T15:12:58.212Z,36.57
2022-10-16T15:15:45.100Z,37.73
2022-10-16T15:18:18.716Z,39.80
2022-10-16T15:21:03.707Z,38.50
2022-10-16T15:23:36.702Z,39.70
2022-10-16T15:26:08.525Z,36.93
2022-10-16T15:28:40.434Z,39.10
2022-10-16T15:31:10.457Z,37.67
2022-10-16T15:33:40.066Z,40.83
2022-10-16T15:36:11.283Z,39.53
2022-10-16T15:38:39.985Z,38.37
2022-10-16T15:41:12.930Z,39.30
2022-10-16T15:43:45.641Z,40.67
2022-10-16T15:46:18.944Z,43.43
2022-10-16T15:48:50.829Z,43.23
2022-10-16T15:51:19.485Z,41.97
2022-10-16T15:53:50.970Z,41.23
2022-10-16T15:56:19.420Z,43.27
2022-10-16T15:58:55.342Z,43.67
2022-10-16T16:01:23.836Z,42.17
2022-10-16T16:03:55.537Z,39.90
2022-10-16T16:06:26.507Z,38.80
2022-10-16T16:08:54.675Z,39.37
2022-10-16T16:11:25.655Z,39.10
2022-10-16T16:13:56.173Z,38.97
2022-10-16T16:16:24.824Z,40.07
2022-10-16T16:18:54.297Z,38.03
2022-10-16T16:21:23.495Z,39.67
2022-10-16T16:23:54.142Z,38.47
2022-10-16T16:26:33.849Z,38.63
2022-10-16T16:29:02.805Z,38.27
2022-10-16T16:31:36.852Z,39.33
2022-10-16T16:34:04.521Z,40.03
2022-10-16T16:36:32.349Z,39.60
2022-10-16T16:39:04.518Z,39.17
2022-10-16T16:41:34.102Z,40.53
2022-10-16T16:44:13.007Z,40.20
2022-10-16T16:46:44.219Z,40.60
2022-10-16T16:49:22.934Z,40.90
2022-10-16T16:51:53.866Z,42.40
2022-10-16T16:54:26.942Z,43.10
2022-10-16T16:56:57.272Z,43.60
2022-10-16T16:59:29.497Z,44.97
2022-10-16T17:02:00.697Z,40.93
2022-10-16T17:05:31.098Z,44.07
2022-10-16T17:17:35.088Z,45.30
2022-10-16T17:20:15.450Z,47.20
2022-10-16T17:22:47.769Z,46.73
2022-10-16T17:25:19.465Z,43.63
2022-10-16T17:27:51.376Z,43.10
2022-10-16T17:30:21.986Z,39.97
2022-10-16T17:32:51.593Z,37.57
2022-10-16T17:35:20.860Z,34.50
2022-10-16T17:37:54.137Z,38.53
2022-10-16T17:40:22.901Z,39.03
2022-10-16T17:42:57.966Z,41.40
2022-10-16T17:45:32.942Z,40.33
2022-10-16T17:48:18.552Z,42.60
2022-10-16T17:50:50.320Z,42.73
2022-10-16T17:53:20.193Z,42.93
2022-10-16T17:55:52.252Z,41.83
2022-10-16T17:58:24.697Z,44.13
2022-10-16T18:01:05.415Z,40.87
2022-10-16T18:03:40.491Z,39.87
2022-10-16T18:06:13.046Z,40.97
2022-10-16T18:08:44.447Z,43.57
2022-10-16T18:11:25.452Z,47.70
2022-10-16T18:14:05.346Z,47.43
2022-10-16T18:16:38.232Z,49.60
2022-10-16T18:19:11.049Z,46.00
2022-10-16T18:21:40.601Z,44.30
2022-10-16T18:24:11.219Z,43.90
2022-10-16T18:26:41.719Z,42.90
2022-10-16T18:29:14.866Z,45.13
2022-10-16T18:31:50.076Z,45.60
2022-10-16T18:34:23.644Z,45.63
2022-10-16T18:36:55.323Z,44.37
2022-10-16T18:39:32.247Z,44.60
2022-10-16T18:42:04.208Z,46.70
2022-10-16T18:44:38.117Z,44.17
2022-10-16T18:47:07.778Z,42.97
2022-10-16T18:49:43.855Z,43.60
2022-10-16T18:52:12.850Z,40.60
2022-10-16T18:57:33.990Z,36.80
2022-10-16T19:00:11.248Z,38.90
2022-10-16T19:05:28.148Z,37.23
2022-10-16T19:08:06.415Z,36.40
2022-10-16T19:10:45.019Z,34.00
2022-10-16T19:16:19.381Z,38.40
2022-10-16T19:18:54.931Z,37.90
2022-10-16T19:21:26.070Z,39.70
2022-10-16T19:24:03.189Z,39.37
2022-10-16T19:26:36.785Z,38.47
2022-10-16T19:29:10.881Z,41.93
2022-10-16T19:31:41.130Z,40.23
2022-10-16T19:34:15.762Z,40.43
2022-10-16T19:36:46.405Z,41.50
2022-10-16T19:39:22.128Z,40.60
2022-10-16T19:41:52.223Z,41.60
2022-10-16T19:44:25.154Z,41.83
2022-10-16T19:46:52.882Z,43.87
2022-10-16T19:49:24.305Z,42.93
2022-10-16T19:52:15.048Z,44.43
2022-10-16T19:54:45.488Z,42.53
2022-10-16T19:57:14.250Z,42.70
2022-10-16T19:59:57.305Z,39.33
2022-10-16T20:02:28.759Z,37.23
2022-10-16T20:05:02.560Z,36.90
2022-10-16T20:07:37.754Z,39.47
2022-10-16T20:10:09.366Z,41.60
2022-10-16T20:12:41.200Z,44.37
2022-10-16T20:15:15.385Z,47.07
2022-10-16T20:17:57.610Z,47.10
2022-10-16T20:20:26.010Z,45.20
2022-10-16T20:22:57.084Z,46.57
2022-10-16T20:28:11.429Z,45.43
2022-10-16T20:31:07.396Z,44.93
2022-10-16T20:33:35.538Z,43.90
2022-10-16T20:36:12.983Z,43.73
2022-10-16T20:41:28.046Z,43.47
2022-10-16T20:43:56.674Z,44.70
2022-10-16T20:46:27.308Z,43.67
2022-10-16T20:49:16.211Z,43.73
2022-10-16T20:51:53.285Z,40.23
2022-10-16T20:54:22.187Z,40.33
2022-10-16T20:56:56.500Z,40.50
2022-10-16T20:59:27.988Z,40.43
2022-10-16T21:01:59.133Z,40.03
2022-10-16T21:04:26.813Z,39.80
2022-10-16T21:06:55.342Z,40.00
2022-10-16T21:09:25.664Z,38.50
2022-10-16T21:11:54.204Z,40.87
2022-10-16T21:17:07.136Z,37.10
2022-10-16T21:19:34.610Z,37.33
2022-10-16T21:22:03.841Z,38.80
2022-10-16T21:24:33.517Z,38.30
2022-10-16T21:27:01.298Z,38.73
2022-10-16T21:29:34.480Z,39.53
2022-10-16T21:32:05.720Z,37.97
2022-10-16T21:37:21.053Z,39.03
2022-10-16T21:39:52.316Z,37.90
2022-10-16T21:42:23.747Z,39.23
2022-10-16T21:44:54.699Z,37.00
2022-10-16T21:47:24.677Z,37.57
2022-10-16T21:49:53.802Z,36.87
2022-10-16T21:52:21.557Z,36.70
2022-10-16T21:54:52.480Z,37.27
2022-10-16T21:57:24.982Z,35.70
2022-10-16T21:59:54.889Z,37.63
2022-10-16T22:02:25.736Z,36.77
2022-10-16T22:04:54.140Z,36.33
2022-10-16T22:07:24.899Z,36.87
2022-10-16T22:09:54.005Z,38.73
2022-10-16T22:12:22.505Z,38.33
2022-10-16T22:14:52.621Z,36.80
2022-10-16T22:17:24.622Z,35.97
2022-10-16T22:19:55.345Z,36.13
2022-10-16T22:22:25.015Z,36.87
2022-10-16T22:24:55.861Z,36.13
2022-10-16T22:27:27.757Z,35.90
2022-10-16T22:29:58.632Z,35.47
2022-10-16T22:32:29.763Z,36.90
2022-10-16T22:34:59.494Z,36.13
2022-10-16T22:37:32.687Z,35.40
2022-10-16T22:40:03.769Z,35.47
2022-10-16T22:42:33.808Z,35.20
2022-10-16T22:45:06.554Z,33.53
2022-10-16T22:47:37.717Z,35.63
2022-10-16T22:52:51.947Z,35.50
2022-10-16T22:55:22.883Z,35.37
2022-10-16T22:57:52.690Z,34.83
2022-10-16T23:03:06.744Z,35.20
2022-10-16T23:05:38.878Z,36.00
2022-10-16T23:08:13.049Z,37.00
2022-10-16T23:10:47.298Z,36.17
2022-10-16T23:13:17.061Z,36.23
2022-10-16T23:15:48.558Z,35.23
2022-10-16T23:18:19.389Z,34.87
2022-10-16T23:23:34.155Z,33.17
2022-10-16T23:26:03.674Z,32.40
2022-10-16T23:28:36.570Z,32.87
2022-10-16T23:31:08.218Z,33.47
2022-10-16T23:33:37.239Z,33.47
2022-10-16T23:36:06.332Z,32.23
2022-10-16T23:38:37.695Z,32.77
2022-10-16T23:41:11.727Z,33.30
2022-10-16T23:43:50.382Z,32.57
2022-10-16T23:46:20.143Z,33.17
2022-10-16T23:48:49.656Z,32.27
2022-10-16T23:51:28.689Z,31.60
2022-10-16T23:53:59.527Z,31.60
2022-10-16T23:56:30.544Z,31.63
2022-10-16T23:58:59.324Z,31.30
